Time;durP1;ratioP1;P1;durP2;ratioP2;P2;SDS_P1;SDS_P2;PMS_P1;PMS_P2;Temp;Humidity;BMP_temperature;BMP_pressure;BME280_temperature;BME280_humidity;BME280_pressure;Samples;Min_cycle;Max_cycle;Signal;HPM_P1;HPM_P2
2022/01/30 00:01:43;;;;;;;41.75;18.98;;;;;;;;;;5021299;28;20532;-47
2022/01/30 00:04:09;;;;;;;100.18;50.20;;;;;;;;;;5020664;28;20044;-48
2022/01/30 00:06:35;;;;;;;103.45;51.47;;;;;;;;;;5021471;28;20079;-48
2022/01/30 00:09:02;;;;;;;91.25;47.75;;;;;;;;;;5020479;28;20028;-47
2022/01/30 00:11:33;;;;;;;76.50;39.45;;;;;;;;;;5020375;28;20763;-46
2022/01/30 00:14:01;;;;;;;53.53;28.98;;;;;;;;;;5021174;28;20057;-46
2022/01/30 00:16:32;;;;;;;41.88;19.02;;;;;;;;;;5020562;28;20029;-46
2022/01/30 00:24:12;;;;;;;44.90;22.48;;;;;;;;;;5020731;28;20025;-47
2022/01/30 00:26:41;;;;;;;35.47;16.95;;;;;;;;;;5020666;28;20029;-46
2022/01/30 00:29:08;;;;;;;52.97;24.58;;;;;;;;;;5021024;28;20083;-47
2022/01/30 00:31:37;;;;;;;35.85;20.65;;;;;;;;;;5020446;28;20033;-46
2022/01/30 00:34:03;;;;;;;50.20;27.45;;;;;;;;;;5020665;28;20304;-47
2022/01/30 00:36:32;;;;;;;52.05;24.80;;;;;;;;;;5021030;28;20144;-46
2022/01/30 00:38:59;;;;;;;46.95;24.88;;;;;;;;;;5019078;28;20612;-47
2022/01/30 00:41:25;;;;;;;32.45;18.40;;;;;;;;;;5020599;28;21110;-46
2022/01/30 00:43:51;;;;;;;48.08;24.17;;;;;;;;;;5020932;28;20034;-46
2022/01/30 00:46:17;;;;;;;45.78;24.13;;;;;;;;;;5019800;28;20036;-47
2022/01/30 00:48:43;;;;;;;52.20;25.67;;;;;;;;;;5018765;28;20044;-46
2022/01/30 00:51:10;;;;;;;47.78;25.17;;;;;;;;;;5019794;28;20148;-46
2022/01/30 00:53:36;;;;;;;47.15;24.75;;;;;;;;;;5019985;28;20045;-47
2022/01/30 00:56:04;;;;;;;44.45;22.92;;;;;;;;;;5020874;28;20025;-47
2022/01/30 00:58:30;;;;;;;40.95;21.33;;;;;;;;;;5020293;28;20030;-47
2022/01/30 01:00:56;;;;;;;50.28;25.10;;;;;;;;;;5020681;28;20493;-48
2022/01/30 01:03:24;;;;;;;38.03;19.65;;;;;;;;;;5020204;28;20029;-48
2022/01/30 01:05:51;;;;;;;54.95;25.92;;;;;;;;;;5020406;28;20104;-47
2022/01/30 01:08:33;;;;;;;53.05;25.73;;;;;;;;;;5020085;28;20111;-47
2022/01/30 01:25:12;;;;;;;53.42;22.77;;;;;;;;;;4854262;29;20244;-46
2022/01/30 01:27:39;;;;;;;38.03;19.50;;;;;;;;;;4854372;29;20036;-46
2022/01/30 01:30:05;;;;;;;31.77;14.63;;;;;;;;;;4854265;29;20053;-47
2022/01/30 01:32:31;;;;;;;30.58;14.70;;;;;;;;;;4854531;29;20486;-47
2022/01/30 01:34:57;;;;;;;59.13;29.13;;;;;;;;;;4854176;29;20041;-46
2022/01/30 01:37:23;;;;;;;46.97;22.30;;;;;;;;;;4854679;29;20584;-46
2022/01/30 01:39:49;;;;;;;33.08;17.17;;;;;;;;;;4854081;29;20687;-46
2022/01/30 01:42:16;;;;;;;43.00;22.33;;;;;;;;;;4854070;29;20156;-47
2022/01/30 01:44:47;;;;;;;72.28;38.38;;;;;;;;;;4853782;29;20021;-47
2022/01/30 01:47:15;;;;;;;40.15;20.27;;;;;;;;;;4854330;29;20037;-47
2022/01/30 01:49:42;;;;;;;45.45;23.40;;;;;;;;;;4844230;29;20037;-46
2022/01/30 01:52:18;;;;;;;43.58;20.30;;;;;;;;;;4835967;29;20587;-48
2022/01/30 01:54:52;;;;;;;64.03;32.28;;;;;;;;;;4836468;29;20123;-47
2022/01/30 01:57:19;;;;;;;52.72;26.52;;;;;;;;;;4854165;29;20593;-47
2022/01/30 01:59:45;;;;;;;36.45;19.60;;;;;;;;;;4939719;28;20054;-47
2022/01/30 02:02:12;;;;;;;26.45;13.55;;;;;;;;;;4999559;28;20056;-47
2022/01/30 02:04:41;;;;;;;41.47;22.00;;;;;;;;;;5018162;28;20245;-47
2022/01/30 02:09:38;;;;;;;37.65;19.52;;;;;;;;;;5019167;28;20710;-47
2022/01/30 02:12:04;;;;;;;37.55;18.00;;;;;;;;;;5019199;28;20737;-47
2022/01/30 02:25:48;;;;;;;46.15;18.33;;;;;;;;;;5023338;28;20180;-47
2022/01/30 02:28:17;;;;;;;36.03;16.63;;;;;;;;;;5022106;28;20075;-47
2022/01/30 02:30:55;;;;;;;37.42;17.33;;;;;;;;;;5022538;28;20032;-47
2022/01/30 02:33:22;;;;;;;37.03;17.52;;;;;;;;;;5022306;28;20136;-47
2022/01/30 02:35:48;;;;;;;40.95;18.02;;;;;;;;;;5022660;28;20040;-47
2022/01/30 02:38:16;;;;;;;37.00;18.75;;;;;;;;;;5022415;28;20749;-47
2022/01/30 02:40:45;;;;;;;40.20;19.33;;;;;;;;;;5022036;28;20041;-47
2022/01/30 02:43:13;;;;;;;32.28;15.48;;;;;;;;;;5022342;28;20320;-47
2022/01/30 02:45:46;;;;;;;46.58;22.13;;;;;;;;;;5022451;28;20021;-47
2022/01/30 02:48:19;;;;;;;30.25;15.80;;;;;;;;;;5022262;28;20033;-46
2022/01/30 02:53:14;;;;;;;32.08;16.63;;;;;;;;;;5021984;28;21206;-47
2022/01/30 02:55:40;;;;;;;38.45;18.58;;;;;;;;;;5018145;28;20226;-47
2022/01/30 02:58:07;;;;;;;40.10;19.02;;;;;;;;;;5018445;28;20048;-47
2022/01/30 03:00:33;;;;;;;39.30;20.10;;;;;;;;;;5018028;28;20044;-47
2022/01/30 03:03:01;;;;;;;34.60;18.90;;;;;;;;;;5017983;28;21119;-47
2022/01/30 03:05:27;;;;;;;36.67;17.60;;;;;;;;;;5018905;28;20027;-48
2022/01/30 03:07:53;;;;;;;32.33;17.17;;;;;;;;;;5018151;28;20033;-48
2022/01/30 03:10:20;;;;;;;32.30;15.80;;;;;;;;;;5018346;28;20029;-48
2022/01/30 03:12:46;;;;;;;33.28;15.77;;;;;;;;;;5042831;28;20024;-47
2022/01/30 03:15:12;;;;;;;26.52;14.05;;;;;;;;;;5073075;28;20028;-47
2022/01/30 03:17:40;;;;;;;31.52;14.10;;;;;;;;;;5073483;28;20515;-48
2022/01/30 03:20:06;;;;;;;35.47;16.88;;;;;;;;;;5073318;28;20028;-48
2022/01/30 03:22:33;;;;;;;34.75;16.25;;;;;;;;;;5073192;28;20119;-48
2022/01/30 03:24:59;;;;;;;33.67;15.32;;;;;;;;;;5073254;28;20027;-49
2022/01/30 03:27:25;;;;;;;34.55;16.30;;;;;;;;;;5073115;28;20032;-47
2022/01/30 03:30:02;;;;;;;32.45;15.32;;;;;;;;;;5073307;28;20112;-48
2022/01/30 03:32:28;;;;;;;32.35;16.13;;;;;;;;;;5073272;28;20024;-48
2022/01/30 03:34:54;;;;;;;31.15;15.38;;;;;;;;;;5073176;28;20066;-48
2022/01/30 03:37:21;;;;;;;29.73;14.70;;;;;;;;;;5073109;28;20035;-48
2022/01/30 03:39:47;;;;;;;23.77;11.10;;;;;;;;;;5073119;28;20027;-47
2022/01/30 03:42:13;;;;;;;22.60;11.13;;;;;;;;;;5073312;28;20066;-48
2022/01/30 03:44:39;;;;;;;27.70;14.15;;;;;;;;;;5073421;28;20051;-48
2022/01/30 03:47:05;;;;;;;29.58;13.55;;;;;;;;;;5073116;28;20016;-48
2022/01/30 03:49:32;;;;;;;27.25;11.55;;;;;;;;;;5073245;28;20267;-48
2022/01/30 03:51:58;;;;;;;22.02;10.60;;;;;;;;;;5072904;28;20025;-48
2022/01/30 03:54:24;;;;;;;19.75;9.70;;;;;;;;;;5073069;28;20029;-48
2022/01/30 03:56:50;;;;;;;20.77;10.55;;;;;;;;;;5073035;28;20361;-47
2022/01/30 03:59:16;;;;;;;31.00;13.35;;;;;;;;;;5072827;28;20020;-47
2022/01/30 04:01:42;;;;;;;21.83;10.68;;;;;;;;;;5072856;28;20377;-47
2022/01/30 04:04:09;;;;;;;21.83;9.82;;;;;;;;;;5073037;28;20025;-47
2022/01/30 04:06:35;;;;;;;22.38;10.82;;;;;;;;;;5072922;28;20391;-47
2022/01/30 04:09:03;;;;;;;20.20;11.07;;;;;;;;;;5072886;28;20480;-47
2022/01/30 04:11:29;;;;;;;25.60;11.07;;;;;;;;;;5073016;28;20052;-49
2022/01/30 04:13:56;;;;;;;15.88;8.20;;;;;;;;;;5072973;28;20093;-49
2022/01/30 04:16:22;;;;;;;21.77;9.80;;;;;;;;;;5072997;28;20078;-48
2022/01/30 04:18:48;;;;;;;21.90;10.43;;;;;;;;;;5072862;28;20024;-48
2022/01/30 04:21:14;;;;;;;26.02;10.95;;;;;;;;;;5072546;28;20116;-49
2022/01/30 04:23:40;;;;;;;22.70;9.30;;;;;;;;;;5072734;28;20029;-49
2022/01/30 04:26:06;;;;;;;20.58;9.35;;;;;;;;;;5072904;28;20056;-47
2022/01/30 04:28:33;;;;;;;21.63;9.85;;;;;;;;;;5076277;28;20040;-48
2022/01/30 04:31:01;;;;;;;25.02;10.98;;;;;;;;;;5076312;28;20105;-47
2022/01/30 04:33:27;;;;;;;25.65;12.10;;;;;;;;;;5076395;28;20032;-47
2022/01/30 04:35:54;;;;;;;18.27;8.85;;;;;;;;;;5076342;28;20024;-47
2022/01/30 04:38:26;;;;;;;23.40;10.45;;;;;;;;;;5076186;28;20100;-48
2022/01/30 05:08:03;;;;;;;31.42;17.08;;;;;;;;;;5053613;28;20458;-47
2022/01/30 05:10:30;;;;;;;40.28;18.00;;;;;;;;;;5053733;28;20032;-47
2022/01/30 05:12:58;;;;;;;43.70;18.13;;;;;;;;;;5053547;28;20370;-48
2022/01/30 05:15:27;;;;;;;36.72;16.23;;;;;;;;;;5053445;28;20037;-48
2022/01/30 05:17:54;;;;;;;76.38;33.25;;;;;;;;;;5053318;28;20129;-48
2022/01/30 05:20:20;;;;;;;59.70;25.38;;;;;;;;;;5053472;28;20111;-49
2022/01/30 05:22:47;;;;;;;57.85;24.92;;;;;;;;;;5053218;28;20128;-48
2022/01/30 05:25:13;;;;;;;48.67;21.65;;;;;;;;;;5053257;28;20020;-48
2022/01/30 05:27:40;;;;;;;32.80;14.70;;;;;;;;;;5058411;28;20033;-48
2022/01/30 05:30:06;;;;;;;26.35;12.25;;;;;;;;;;5075591;28;20066;-49
2022/01/30 05:32:32;;;;;;;26.02;12.05;;;;;;;;;;5075366;28;20461;-48
2022/01/30 05:34:59;;;;;;;31.85;13.90;;;;;;;;;;5074115;28;20071;-47
2022/01/30 05:37:25;;;;;;;28.80;14.43;;;;;;;;;;5073762;28;20421;-48
2022/01/30 05:39:51;;;;;;;28.02;14.73;;;;;;;;;;5075057;28;20472;-48
2022/01/30 05:42:19;;;;;;;24.35;12.63;;;;;;;;;;5075238;28;20060;-48
2022/01/30 05:47:20;;;;;;;23.13;11.35;;;;;;;;;;5075071;28;20582;-48
2022/01/30 05:49:47;;;;;;;31.35;12.25;;;;;;;;;;5073453;28;20464;-49
2022/01/30 05:52:13;;;;;;;26.77;13.73;;;;;;;;;;5074762;28;20457;-48
2022/01/30 05:54:39;;;;;;;27.70;13.20;;;;;;;;;;5074840;28;20074;-48
2022/01/30 05:57:05;;;;;;;27.35;12.38;;;;;;;;;;5074774;28;20021;-48
2022/01/30 05:59:32;;;;;;;22.20;10.85;;;;;;;;;;5074711;28;20033;-48
2022/01/30 06:01:58;;;;;;;25.52;11.35;;;;;;;;;;5074678;28;20044;-48
2022/01/30 06:04:24;;;;;;;26.55;12.30;;;;;;;;;;5074552;28;20017;-49
2022/01/30 06:06:52;;;;;;;29.75;14.23;;;;;;;;;;5074449;28;20031;-48
2022/01/30 06:09:19;;;;;;;31.55;14.02;;;;;;;;;;5074421;28;20025;-48
2022/01/30 06:11:47;;;;;;;29.65;12.90;;;;;;;;;;5074437;28;20021;-53
2022/01/30 06:14:14;;;;;;;35.08;14.10;;;;;;;;;;5074590;28;20016;-56
2022/01/30 06:16:40;;;;;;;33.50;14.32;;;;;;;;;;5074471;28;20042;-54
2022/01/30 06:19:06;;;;;;;33.15;14.48;;;;;;;;;;5074448;28;20100;-49
2022/01/30 06:21:32;;;;;;;26.42;12.35;;;;;;;;;;5074366;28;20422;-49
2022/01/30 06:23:59;;;;;;;24.58;12.15;;;;;;;;;;5074380;28;20017;-49
2022/01/30 06:26:26;;;;;;;25.65;11.75;;;;;;;;;;5074195;28;20032;-48
2022/01/30 06:28:54;;;;;;;27.63;13.52;;;;;;;;;;5073895;28;20059;-49
2022/01/30 06:31:20;;;;;;;28.42;13.70;;;;;;;;;;5073996;28;20032;-51
2022/01/30 06:33:48;;;;;;;30.23;14.20;;;;;;;;;;5073867;28;20081;-49
2022/01/30 06:36:14;;;;;;;31.45;14.05;;;;;;;;;;5073968;28;20052;-49
2022/01/30 06:38:40;;;;;;;30.33;14.27;;;;;;;;;;5073733;28;20071;-48
2022/01/30 06:41:06;;;;;;;29.05;13.40;;;;;;;;;;5074064;28;20400;-48
2022/01/30 06:43:32;;;;;;;27.73;13.80;;;;;;;;;;5073999;28;20089;-49
2022/01/30 06:45:58;;;;;;;30.55;13.57;;;;;;;;;;5073811;28;20115;-48
2022/01/30 06:48:24;;;;;;;41.40;15.02;;;;;;;;;;5073836;28;20021;-50
2022/01/30 06:50:53;;;;;;;37.85;15.15;;;;;;;;;;5073269;28;20048;-48
2022/01/30 06:53:19;;;;;;;32.83;16.00;;;;;;;;;;5073566;28;20485;-48
2022/01/30 06:55:45;;;;;;;32.03;15.00;;;;;;;;;;5073742;28;20029;-47
2022/01/30 06:58:15;;;;;;;42.40;21.88;;;;;;;;;;5073344;28;20477;-47
2022/01/30 07:00:41;;;;;;;26.63;13.27;;;;;;;;;;5073767;28;20060;-48
2022/01/30 07:03:07;;;;;;;33.05;14.20;;;;;;;;;;5073385;28;20032;-48
2022/01/30 07:05:33;;;;;;;26.27;12.38;;;;;;;;;;5073360;28;20029;-47
2022/01/30 07:07:59;;;;;;;29.90;13.60;;;;;;;;;;5073496;28;20032;-49
2022/01/30 07:10:26;;;;;;;36.72;15.15;;;;;;;;;;5073459;28;20457;-49
2022/01/30 07:12:52;;;;;;;28.48;14.88;;;;;;;;;;5073354;28;20066;-48
2022/01/30 07:15:18;;;;;;;37.17;16.92;;;;;;;;;;5073357;28;20048;-49
2022/01/30 07:17:44;;;;;;;33.38;16.10;;;;;;;;;;5073371;28;20074;-48
2022/01/30 07:20:11;;;;;;;39.85;18.10;;;;;;;;;;5073141;28;20036;-48
2022/01/30 07:22:37;;;;;;;260.90;94.05;;;;;;;;;;5073069;28;20032;-48
2022/01/30 07:25:07;;;;;;;115.95;46.13;;;;;;;;;;5073301;28;20598;-48
2022/01/30 07:27:34;;;;;;;40.53;19.90;;;;;;;;;;5072923;28;20032;-46
2022/01/30 07:30:00;;;;;;;43.97;19.20;;;;;;;;;;5073342;28;20090;-48
2022/01/30 07:32:26;;;;;;;39.72;20.13;;;;;;;;;;5073098;28;20082;-48
2022/01/30 07:34:52;;;;;;;46.50;20.58;;;;;;;;;;5073272;28;20021;-49
2022/01/30 07:37:19;;;;;;;35.65;17.67;;;;;;;;;;5073365;28;20103;-47
2022/01/30 07:39:50;;;;;;;28.80;14.57;;;;;;;;;;5073193;28;20021;-49
2022/01/30 07:42:20;;;;;;;27.35;14.07;;;;;;;;;;5073147;28;20484;-49
2022/01/30 07:44:47;;;;;;;26.10;13.77;;;;;;;;;;5073175;28;20036;-50
2022/01/30 07:47:13;;;;;;;25.50;14.18;;;;;;;;;;5073208;28;20476;-48
2022/01/30 07:49:49;;;;;;;23.58;14.70;;;;;;;;;;5072935;28;20028;-47
2022/01/30 07:52:15;;;;;;;29.35;12.27;;;;;;;;;;5072866;28;20017;-47
2022/01/30 07:54:41;;;;;;;30.83;13.40;;;;;;;;;;5072983;28;20024;-46
2022/01/30 07:57:07;;;;;;;31.42;14.75;;;;;;;;;;5072902;28;20100;-47
2022/01/30 07:59:33;;;;;;;27.42;15.82;;;;;;;;;;5072960;28;20032;-46
2022/01/30 08:01:59;;;;;;;27.65;15.40;;;;;;;;;;5074171;28;20032;-46
2022/01/30 08:04:28;;;;;;;42.72;21.15;;;;;;;;;;5076722;28;20024;-47
2022/01/30 08:06:54;;;;;;;32.47;20.77;;;;;;;;;;5076745;28;20130;-47
2022/01/30 08:09:20;;;;;;;36.80;23.70;;;;;;;;;;5076357;28;20024;-47
2022/01/30 08:11:46;;;;;;;38.63;23.52;;;;;;;;;;5076588;28;20027;-47
2022/01/30 08:14:17;;;;;;;32.88;20.50;;;;;;;;;;5076772;28;20029;-48
2022/01/30 08:16:43;;;;;;;33.63;16.90;;;;;;;;;;5076472;28;20153;-51
2022/01/30 08:19:09;;;;;;;28.80;18.05;;;;;;;;;;5076625;28;20258;-47
2022/01/30 08:21:35;;;;;;;25.25;14.65;;;;;;;;;;5076424;28;20515;-48
2022/01/30 08:24:01;;;;;;;26.63;15.68;;;;;;;;;;5076482;28;20078;-48
2022/01/30 08:26:27;;;;;;;34.53;19.33;;;;;;;;;;5076553;28;20032;-48
2022/01/30 08:28:56;;;;;;;32.25;17.02;;;;;;;;;;5076150;28;20045;-46
2022/01/30 08:31:22;;;;;;;31.92;17.52;;;;;;;;;;5064852;28;20025;-48
2022/01/30 08:33:48;;;;;;;43.22;22.50;;;;;;;;;;5055698;28;20031;-49
2022/01/30 08:36:14;;;;;;;35.45;20.42;;;;;;;;;;5055800;28;20074;-48
2022/01/30 08:38:40;;;;;;;32.85;18.20;;;;;;;;;;5051477;28;20033;-50
2022/01/30 08:41:06;;;;;;;36.38;19.65;;;;;;;;;;5025615;28;20512;-46
2022/01/30 08:43:32;;;;;;;39.83;20.90;;;;;;;;;;5024342;28;20042;-48
2022/01/30 08:45:59;;;;;;;28.38;16.75;;;;;;;;;;5024160;28;20017;-47
2022/01/30 08:48:27;;;;;;;31.52;16.27;;;;;;;;;;5024042;28;20026;-46
2022/01/30 08:50:54;;;;;;;33.63;17.27;;;;;;;;;;5024093;28;20109;-47
2022/01/30 08:53:20;;;;;;;40.70;18.63;;;;;;;;;;5023749;28;20036;-46
2022/01/30 08:55:46;;;;;;;33.15;19.05;;;;;;;;;;5024156;28;20112;-48
2022/01/30 08:58:13;;;;;;;36.63;20.20;;;;;;;;;;5023430;28;20021;-47
2022/01/30 09:00:43;;;;;;;41.35;21.67;;;;;;;;;;5023676;28;20076;-46
2022/01/30 09:03:10;;;;;;;41.25;21.17;;;;;;;;;;5024758;28;20033;-47
2022/01/30 09:05:38;;;;;;;47.75;25.92;;;;;;;;;;5023890;28;20037;-48
2022/01/30 09:08:05;;;;;;;40.63;20.83;;;;;;;;;;5023544;28;20140;-48
2022/01/30 09:10:32;;;;;;;40.60;22.42;;;;;;;;;;5023577;28;20029;-46
2022/01/30 09:12:58;;;;;;;39.33;23.80;;;;;;;;;;5024161;28;20492;-47
2022/01/30 09:15:24;;;;;;;35.40;20.35;;;;;;;;;;5023825;28;20068;-50
2022/01/30 09:17:56;;;;;;;36.17;21.17;;;;;;;;;;5023255;28;20541;-49
2022/01/30 09:20:22;;;;;;;38.75;22.00;;;;;;;;;;5023010;28;20143;-49
2022/01/30 09:22:51;;;;;;;45.67;24.17;;;;;;;;;;5023059;28;20029;-51
2022/01/30 09:25:17;;;;;;;42.75;21.98;;;;;;;;;;5023280;28;20025;-48
2022/01/30 09:27:44;;;;;;;36.80;19.15;;;;;;;;;;5023020;28;20826;-48
2022/01/30 09:30:10;;;;;;;31.00;17.60;;;;;;;;;;5023027;28;20045;-48
2022/01/30 09:32:36;;;;;;;36.60;17.30;;;;;;;;;;5023003;28;20030;-48
2022/01/30 09:35:03;;;;;;;49.92;28.55;;;;;;;;;;5024421;28;20029;-47
2022/01/30 09:37:29;;;;;;;32.42;18.15;;;;;;;;;;5023246;28;20083;-47
2022/01/30 09:39:59;;;;;;;32.25;16.30;;;;;;;;;;5023309;28;20099;-48
2022/01/30 09:42:25;;;;;;;31.55;14.85;;;;;;;;;;5023647;28;20037;-48
2022/01/30 09:44:52;;;;;;;27.05;15.13;;;;;;;;;;5022734;28;20033;-46
2022/01/30 09:47:18;;;;;;;30.92;15.85;;;;;;;;;;5022735;28;20028;-47
2022/01/30 09:49:47;;;;;;;29.95;16.17;;;;;;;;;;5022939;28;20076;-50
2022/01/30 09:52:15;;;;;;;52.55;12.57;;;;;;;;;;5023647;28;20021;-48
2022/01/30 09:54:41;;;;;;;46.90;26.38;;;;;;;;;;5018638;28;20028;-47
2022/01/30 09:57:07;;;;;;;34.33;19.83;;;;;;;;;;5026295;28;20025;-48
2022/01/30 09:59:33;;;;;;;68.72;37.70;;;;;;;;;;5027117;28;20036;-47
2022/01/30 10:02:03;;;;;;;56.70;33.35;;;;;;;;;;5027437;28;20044;-48
2022/01/30 10:04:29;;;;;;;36.67;20.27;;;;;;;;;;5027183;28;20060;-48
2022/01/30 10:06:59;;;;;;;33.22;17.38;;;;;;;;;;5024345;28;20021;-48
2022/01/30 10:09:32;;;;;;;53.22;29.17;;;;;;;;;;5022502;28;20033;-48
2022/01/30 10:14:49;;;;;;;104.15;61.70;;;;;;;;;;5023673;28;20794;-49
2022/01/30 10:17:28;;;;;;;44.53;22.40;;;;;;;;;;5023169;28;20037;-49
2022/01/30 10:20:03;;;;;;;59.97;34.63;;;;;;;;;;5022098;28;20486;-49
2022/01/30 10:22:29;;;;;;;58.58;27.58;;;;;;;;;;5022341;28;20040;-48
2022/01/30 10:24:56;;;;;;;72.75;41.25;;;;;;;;;;5020975;28;20188;-49
2022/01/30 10:27:24;;;;;;;47.45;24.02;;;;;;;;;;5021908;28;20478;-49
2022/01/30 10:29:58;;;;;;;45.42;23.13;;;;;;;;;;5021914;28;20053;-50
2022/01/30 10:32:26;;;;;;;53.97;31.20;;;;;;;;;;5024312;28;20480;-49
2022/01/30 10:35:03;;;;;;;61.13;34.45;;;;;;;;;;5021702;28;20120;-49
2022/01/30 10:37:29;;;;;;;58.55;31.85;;;;;;;;;;5022777;28;20108;-49
2022/01/30 10:40:24;;;;;;;79.47;36.35;;;;;;;;;;5021503;28;20194;-49
2022/01/30 10:42:51;;;;;;;90.13;40.80;;;;;;;;;;5022450;28;20043;-49
2022/01/30 10:45:17;;;;;;;54.53;29.45;;;;;;;;;;5022934;28;20111;-49
2022/01/30 10:47:44;;;;;;;45.50;24.33;;;;;;;;;;5021601;28;20140;-49
2022/01/30 10:50:11;;;;;;;41.05;24.38;;;;;;;;;;5021050;28;20026;-48
2022/01/30 10:52:50;;;;;;;52.30;27.73;;;;;;;;;;5021754;28;20127;-49
2022/01/30 10:55:16;;;;;;;42.95;23.13;;;;;;;;;;5021507;28;20021;-49
2022/01/30 10:57:45;;;;;;;34.88;19.98;;;;;;;;;;5021424;28;20029;-49
2022/01/30 11:00:11;;;;;;;65.55;32.92;;;;;;;;;;5022109;28;20037;-48
2022/01/30 11:02:38;;;;;;;51.85;27.20;;;;;;;;;;5021319;28;20787;-49
2022/01/30 11:05:11;;;;;;;82.50;46.92;;;;;;;;;;5022150;28;20018;-48
2022/01/30 11:07:37;;;;;;;74.53;43.13;;;;;;;;;;5022269;28;20545;-47
2022/01/30 11:10:10;;;;;;;67.40;39.33;;;;;;;;;;5022482;28;20021;-49
2022/01/30 11:12:46;;;;;;;75.35;43.72;;;;;;;;;;5021131;28;20021;-48
2022/01/30 11:17:44;;;;;;;98.53;56.28;;;;;;;;;;5021015;28;20021;-50
2022/01/30 11:20:13;;;;;;;57.78;31.15;;;;;;;;;;5021268;28;20117;-48
2022/01/30 11:22:39;;;;;;;85.18;45.20;;;;;;;;;;5020993;28;20048;-48
2022/01/30 11:25:07;;;;;;;74.88;45.47;;;;;;;;;;5020910;28;20835;-48
2022/01/30 11:27:34;;;;;;;42.53;21.55;;;;;;;;;;5020709;28;20127;-49
2022/01/30 11:30:03;;;;;;;54.45;29.35;;;;;;;;;;5020881;28;20061;-49
2022/01/30 11:32:29;;;;;;;70.10;39.63;;;;;;;;;;5022084;28;20101;-48
2022/01/30 11:34:56;;;;;;;54.10;29.05;;;;;;;;;;5022003;28;20206;-48
2022/01/30 11:37:26;;;;;;;73.90;42.78;;;;;;;;;;5027384;28;20018;-48
2022/01/30 11:39:52;;;;;;;46.55;22.15;;;;;;;;;;5029146;28;20024;-50
2022/01/30 11:42:23;;;;;;;67.03;39.33;;;;;;;;;;5027178;28;20033;-52
2022/01/30 11:44:52;;;;;;;40.28;22.75;;;;;;;;;;5028978;28;20025;-49
2022/01/30 11:47:19;;;;;;;60.22;35.75;;;;;;;;;;5028022;28;20037;-51
2022/01/30 11:50:00;;;;;;;42.65;21.75;;;;;;;;;;5027490;28;20022;-53
2022/01/30 11:52:45;;;;;;;95.45;52.72;;;;;;;;;;5027149;28;20052;-50
2022/01/30 11:55:31;;;;;;;56.63;34.17;;;;;;;;;;5028429;28;20879;-51
2022/01/30 11:57:57;;;;;;;90.18;49.63;;;;;;;;;;5028268;28;20034;-52
2022/01/30 12:00:43;;;;;;;38.03;17.70;;;;;;;;;;5027305;28;20022;-54
2022/01/30 12:03:25;;;;;;;30.15;16.13;;;;;;;;;;5027118;28;20095;-59
2022/01/30 12:05:51;;;;;;;53.65;31.17;;;;;;;;;;5026964;28;20140;-50
2022/01/30 12:08:36;;;;;;;48.42;24.48;;;;;;;;;;5027229;28;20695;-51
2022/01/30 12:11:02;;;;;;;85.45;27.52;;;;;;;;;;5027272;28;20470;-51
2022/01/30 12:13:44;;;;;;;100.35;54.65;;;;;;;;;;5026889;28;20034;-50
2022/01/30 12:16:30;;;;;;;19.17;9.63;;;;;;;;;;5027047;28;20028;-52
2022/01/30 12:18:56;;;;;;;12.70;5.38;;;;;;;;;;5026903;28;20032;-51
2022/01/30 12:21:26;;;;;;;118.43;51.40;;;;;;;;;;5027238;28;21094;-48
2022/01/30 12:23:53;;;;;;;13.93;4.67;;;;;;;;;;5026832;28;20358;-52
2022/01/30 12:26:19;;;;;;;10.02;4.00;;;;;;;;;;5026945;28;20028;-53
2022/01/30 12:28:55;;;;;;;11.30;4.43;;;;;;;;;;5026590;28;20426;-48
2022/01/30 12:31:38;;;;;;;17.80;4.60;;;;;;;;;;5026489;28;20500;-51
2022/01/30 12:34:09;;;;;;;10.73;3.65;;;;;;;;;;5026493;28;20021;-50
2022/01/30 12:36:39;;;;;;;23.33;4.78;;;;;;;;;;5026591;28;20035;-51
2022/01/30 12:39:10;;;;;;;19.23;3.85;;;;;;;;;;5027133;28;20091;-52
2022/01/30 12:41:36;;;;;;;10.70;2.85;;;;;;;;;;5026308;28;20026;-48
2022/01/30 12:44:07;;;;;;;10.07;3.40;;;;;;;;;;5026455;28;20036;-48
2022/01/30 12:46:39;;;;;;;11.68;3.20;;;;;;;;;;5026568;28;20406;-50
2022/01/30 12:49:09;;;;;;;11.93;3.42;;;;;;;;;;5023995;28;20468;-49
2022/01/30 12:51:36;;;;;;;13.45;4.55;;;;;;;;;;5023414;28;20095;-48
2022/01/30 12:54:03;;;;;;;12.23;3.92;;;;;;;;;;5022745;28;20080;-48
2022/01/30 12:56:29;;;;;;;13.32;3.63;;;;;;;;;;5024087;28;21550;-52
2022/01/30 12:58:59;;;;;;;13.13;4.53;;;;;;;;;;5024055;28;20036;-51
2022/01/30 13:01:26;;;;;;;6.55;2.90;;;;;;;;;;5023092;28;20039;-49
2022/01/30 13:04:02;;;;;;;11.63;4.40;;;;;;;;;;5022925;28;20594;-51
2022/01/30 13:06:35;;;;;;;12.48;3.47;;;;;;;;;;5022618;28;20083;-50
2022/01/30 13:09:01;;;;;;;11.32;3.88;;;;;;;;;;5022996;28;20033;-52
2022/01/30 13:11:27;;;;;;;17.30;3.05;;;;;;;;;;5022853;28;20571;-49
2022/01/30 13:14:16;;;;;;;9.18;3.08;;;;;;;;;;5022786;28;20045;-52
2022/01/30 13:16:48;;;;;;;8.27;2.65;;;;;;;;;;5023938;28;20452;-48
2022/01/30 13:19:15;;;;;;;6.97;3.33;;;;;;;;;;5023535;28;20032;-49
2022/01/30 13:21:50;;;;;;;8.75;2.78;;;;;;;;;;5023078;28;20185;-51
2022/01/30 13:24:18;;;;;;;14.18;3.60;;;;;;;;;;5022662;28;20052;-50
2022/01/30 13:26:44;;;;;;;12.25;2.47;;;;;;;;;;5022523;28;20441;-50
2022/01/30 13:29:12;;;;;;;11.63;3.65;;;;;;;;;;5022423;28;20460;-51
2022/01/30 13:31:39;;;;;;;10.88;4.15;;;;;;;;;;5022606;28;20041;-47
2022/01/30 13:34:15;;;;;;;9.23;3.97;;;;;;;;;;5022373;28;20489;-48
2022/01/30 13:36:42;;;;;;;11.75;3.40;;;;;;;;;;5022340;28;20146;-51
2022/01/30 13:39:16;;;;;;;9.45;2.70;;;;;;;;;;5022141;28;20014;-47
2022/01/30 13:41:48;;;;;;;10.52;3.17;;;;;;;;;;5023236;28;20512;-47
2022/01/30 13:44:25;;;;;;;9.98;2.85;;;;;;;;;;5022452;28;20527;-48
2022/01/30 13:47:02;;;;;;;11.43;2.60;;;;;;;;;;5023321;28;20684;-52
2022/01/30 13:49:29;;;;;;;13.30;4.10;;;;;;;;;;5022153;28;20042;-49
2022/01/30 13:52:11;;;;;;;9.73;4.30;;;;;;;;;;5023088;28;20022;-52
2022/01/30 13:54:38;;;;;;;13.75;3.47;;;;;;;;;;5023033;28;20444;-52
2022/01/30 13:57:05;;;;;;;17.40;3.35;;;;;;;;;;5021863;28;20018;-52
2022/01/30 13:59:31;;;;;;;13.80;4.80;;;;;;;;;;5022063;28;20063;-49
2022/01/30 14:01:58;;;;;;;21.98;4.50;;;;;;;;;;5022229;28;20384;-50
2022/01/30 14:04:25;;;;;;;14.40;4.78;;;;;;;;;;5022114;28;20215;-49
2022/01/30 14:06:53;;;;;;;17.13;5.93;;;;;;;;;;5021791;28;20029;-52
2022/01/30 14:09:25;;;;;;;40.83;6.57;;;;;;;;;;5021677;28;20047;-47
2022/01/30 14:12:02;;;;;;;33.60;7.57;;;;;;;;;;5022789;28;20057;-52
2022/01/30 14:14:29;;;;;;;43.10;12.98;;;;;;;;;;5021526;28;20385;-51
2022/01/30 14:17:00;;;;;;;53.88;11.15;;;;;;;;;;5021567;28;20485;-50
2022/01/30 14:19:33;;;;;;;58.15;15.18;;;;;;;;;;5021616;28;20025;-50
2022/01/30 14:22:14;;;;;;;65.70;15.98;;;;;;;;;;5022450;28;20185;-51
2022/01/30 14:24:48;;;;;;;91.80;21.65;;;;;;;;;;5021454;28;20684;-50
2022/01/30 14:27:14;;;;;;;79.18;17.70;;;;;;;;;;5021069;28;20026;-50
2022/01/30 14:29:41;;;;;;;48.83;12.63;;;;;;;;;;5021058;28;20418;-50
2022/01/30 14:32:11;;;;;;;79.40;16.63;;;;;;;;;;5022479;28;20027;-49
2022/01/30 14:34:37;;;;;;;74.10;20.05;;;;;;;;;;5022228;28;20028;-49
2022/01/30 14:37:04;;;;;;;71.85;22.70;;;;;;;;;;5021285;28;20071;-52
2022/01/30 14:39:34;;;;;;;49.25;15.70;;;;;;;;;;5021334;28;20033;-53
2022/01/30 14:42:01;;;;;;;58.47;15.95;;;;;;;;;;5021770;28;20527;-49
2022/01/30 14:44:29;;;;;;;42.72;12.30;;;;;;;;;;5020779;28;20461;-53
2022/01/30 14:46:55;;;;;;;46.30;9.27;;;;;;;;;;5020993;28;20021;-50
2022/01/30 14:49:21;;;;;;;27.77;8.65;;;;;;;;;;5021287;28;20100;-49
2022/01/30 14:51:47;;;;;;;32.88;7.25;;;;;;;;;;5020918;28;20032;-51
2022/01/30 14:54:14;;;;;;;28.33;6.32;;;;;;;;;;5020977;28;20021;-51
2022/01/30 14:56:40;;;;;;;25.55;7.70;;;;;;;;;;5021399;28;20021;-51
2022/01/30 14:59:06;;;;;;;27.48;7.32;;;;;;;;;;5020870;28;20136;-53
2022/01/30 15:01:33;;;;;;;31.77;6.43;;;;;;;;;;5020989;28;20130;-50
2022/01/30 15:04:02;;;;;;;25.42;7.00;;;;;;;;;;5021019;28;20423;-53
2022/01/30 15:06:28;;;;;;;32.35;5.28;;;;;;;;;;5020647;28;20060;-52
2022/01/30 15:08:54;;;;;;;23.77;5.63;;;;;;;;;;5022243;28;20755;-48
2022/01/30 15:11:22;;;;;;;28.15;6.63;;;;;;;;;;5020326;28;20025;-52
2022/01/30 15:13:49;;;;;;;19.45;5.57;;;;;;;;;;5020561;28;20029;-49
2022/01/30 15:16:29;;;;;;;24.17;5.55;;;;;;;;;;5020743;28;20045;-47
2022/01/30 15:18:55;;;;;;;31.98;6.80;;;;;;;;;;5020310;28;20028;-51
2022/01/30 15:21:21;;;;;;;27.55;8.43;;;;;;;;;;5020528;28;20684;-48
2022/01/30 15:23:50;;;;;;;34.35;7.20;;;;;;;;;;5020930;28;20033;-49
2022/01/30 15:26:16;;;;;;;36.45;9.00;;;;;;;;;;5021473;28;20080;-50
2022/01/30 15:28:42;;;;;;;28.15;5.40;;;;;;;;;;5020193;28;20045;-51
2022/01/30 15:31:08;;;;;;;32.85;6.90;;;;;;;;;;5020509;28;20033;-50
2022/01/30 15:33:34;;;;;;;27.23;5.78;;;;;;;;;;5020293;28;20477;-53
2022/01/30 15:36:00;;;;;;;40.78;8.77;;;;;;;;;;5020304;28;20037;-51